createdAt,value
2022-11-15T00:02:19.252Z,26.73
2022-11-15T00:05:39.893Z,28.90
2022-11-15T00:09:01.580Z,29.70
2022-11-15T00:12:22.346Z,25.80
2022-11-15T00:15:43.207Z,26.83
2022-11-15T00:19:04.054Z,28.13
2022-11-15T00:22:24.634Z,25.47
2022-11-15T00:25:45.487Z,24.93
2022-11-15T00:29:06.646Z,25.87
2022-11-15T00:32:27.602Z,24.77
2022-11-15T00:35:48.193Z,24.47
2022-11-15T00:39:08.829Z,24.90
2022-11-15T00:42:29.506Z,25.60
2022-11-15T00:45:49.883Z,23.17
2022-11-15T00:49:10.183Z,25.10
2022-11-15T00:52:30.880Z,23.70
2022-11-15T00:55:55.432Z,24.77
2022-11-15T00:59:17.303Z,26.03
2022-11-15T01:02:37.630Z,27.23
2022-11-15T01:06:00.872Z,23.43
2022-11-15T01:09:21.376Z,24.93
2022-11-15T01:12:42.191Z,26.00
2022-11-15T01:16:14.721Z,27.37
2022-11-15T01:19:35.143Z,28.07
2022-11-15T01:22:56.387Z,28.07
2022-11-15T01:26:17.335Z,30.00
2022-11-15T01:29:37.878Z,31.43
2022-11-15T01:32:58.114Z,33.00
2022-11-15T01:36:22.859Z,31.50
2022-11-15T01:39:43.564Z,30.57
2022-11-15T01:43:22.936Z,31.20
2022-11-15T01:46:47.720Z,29.57
2022-11-15T01:50:13.486Z,28.87
2022-11-15T01:53:37.460Z,28.23
2022-11-15T01:57:03.285Z,30.10
2022-11-15T02:00:23.860Z,27.10
2022-11-15T02:03:58.278Z,30.63
2022-11-15T02:07:21.328Z,29.20
2022-11-15T02:10:41.880Z,30.03
2022-11-15T02:14:04.564Z,28.40
2022-11-15T02:17:44.078Z,31.43
2022-11-15T02:21:15.388Z,33.10
2022-11-15T02:25:26.875Z,30.77
2022-11-15T02:28:47.333Z,34.80
2022-11-15T02:32:19.004Z,33.10
2022-11-15T02:35:53.811Z,34.07
2022-11-15T02:39:51.321Z,32.77
2022-11-15T02:43:35.300Z,35.30
2022-11-15T02:47:15.612Z,33.00
2022-11-15T02:50:36.492Z,29.20
2022-11-15T02:53:57.160Z,34.47
2022-11-15T02:57:20.994Z,28.80
2022-11-15T03:00:53.898Z,32.20
2022-11-15T03:04:37.741Z,28.93
2022-11-15T03:08:33.634Z,30.53
2022-11-15T03:12:02.357Z,29.73
2022-11-15T03:15:30.669Z,31.03
2022-11-15T03:18:58.060Z,29.00
2022-11-15T03:22:22.702Z,29.23
2022-11-15T03:25:49.682Z,29.53
2022-11-15T03:29:18.412Z,29.13
2022-11-15T03:32:46.283Z,28.57
2022-11-15T03:36:07.413Z,29.77
2022-11-15T03:39:30.218Z,26.97
2022-11-15T03:42:57.981Z,26.37
2022-11-15T03:46:33.005Z,26.30
2022-11-15T03:50:10.125Z,26.93
2022-11-15T03:53:32.181Z,26.77
2022-11-15T03:56:53.222Z,26.33
2022-11-15T04:00:14.171Z,23.87
2022-11-15T04:03:34.919Z,27.83
2022-11-15T04:06:55.663Z,26.87
2022-11-15T04:10:16.608Z,25.77
2022-11-15T04:13:37.170Z,24.20
2022-11-15T04:16:57.538Z,23.07
2022-11-15T04:20:37.795Z,24.47
2022-11-15T04:24:13.446Z,24.43
2022-11-15T04:27:34.129Z,25.43
2022-11-15T04:30:54.623Z,26.47
2022-11-15T04:34:15.043Z,22.17
2022-11-15T04:37:35.448Z,21.13
2022-11-15T04:40:55.929Z,21.67
2022-11-15T04:44:16.322Z,25.17
2022-11-15T04:47:37.502Z,22.37
2022-11-15T04:50:57.973Z,20.30
2022-11-15T04:54:18.582Z,21.73
2022-11-15T04:57:39.547Z,22.97
2022-11-15T05:01:09.428Z,22.90
2022-11-15T05:04:30.126Z,23.77
2022-11-15T05:07:50.720Z,22.23
2022-11-15T05:11:11.526Z,23.57
2022-11-15T05:14:32.211Z,19.63
2022-11-15T05:17:52.545Z,21.03
2022-11-15T05:21:15.682Z,22.03
2022-11-15T05:24:36.106Z,21.97
2022-11-15T05:27:57.098Z,21.00
2022-11-15T05:31:17.915Z,19.83
2022-11-15T05:34:38.478Z,20.40
2022-11-15T05:37:58.961Z,23.80
2022-11-15T05:41:23.881Z,26.73
2022-11-15T05:44:49.811Z,22.00
2022-11-15T05:48:11.627Z,22.87
2022-11-15T05:51:32.095Z,20.80
2022-11-15T05:54:53.961Z,23.60
2022-11-15T05:58:14.522Z,21.53
2022-11-15T06:01:35.192Z,20.90
2022-11-15T06:04:55.992Z,23.87
2022-11-15T06:08:16.820Z,22.83
2022-11-15T06:11:37.524Z,21.13
2022-11-15T06:14:58.100Z,21.87
2022-11-15T06:18:18.395Z,24.30
2022-11-15T06:21:39.192Z,22.83
2022-11-15T06:25:04.956Z,24.00
2022-11-15T06:28:29.390Z,22.13
2022-11-15T06:31:50.202Z,21.43
2022-11-15T06:35:11.077Z,23.43
2022-11-15T06:38:31.695Z,23.40
2022-11-15T06:41:52.669Z,21.97
2022-11-15T06:45:13.435Z,21.47
2022-11-15T06:48:35.355Z,22.60
2022-11-15T06:51:56.042Z,21.73
2022-11-15T06:55:17.009Z,19.73
2022-11-15T06:58:37.740Z,20.07
2022-11-15T07:01:58.515Z,20.37
2022-11-15T07:05:19.207Z,19.83
2022-11-15T07:08:39.662Z,20.13
2022-11-15T07:12:04.589Z,20.53
2022-11-15T07:15:27.805Z,22.87
2022-11-15T07:18:48.216Z,20.23
2022-11-15T07:22:08.769Z,19.23
2022-11-15T07:25:29.319Z,20.83
2022-11-15T07:28:49.898Z,21.03
2022-11-15T07:32:10.984Z,20.40
2022-11-15T07:35:31.970Z,22.03
2022-11-15T07:38:52.715Z,20.97
2022-11-15T07:42:31.565Z,20.30
2022-11-15T07:45:57.534Z,20.10
2022-11-15T07:49:19.483Z,20.43
2022-11-15T07:52:40.188Z,21.20
2022-11-15T07:56:00.582Z,21.07
2022-11-15T07:59:20.993Z,22.57
2022-11-15T08:02:42.296Z,23.10
2022-11-15T08:06:03.686Z,20.43
2022-11-15T08:09:24.241Z,17.83
2022-11-15T08:12:45.095Z,21.60
2022-11-15T08:16:06.720Z,20.23
2022-11-15T08:19:27.742Z,19.63
2022-11-15T08:22:48.190Z,19.63
2022-11-15T08:26:09.968Z,18.47
2022-11-15T08:29:30.438Z,19.93
2022-11-15T08:32:53.065Z,21.97
2022-11-15T08:36:18.196Z,19.23
2022-11-15T08:39:39.160Z,21.33
2022-11-15T08:43:03.496Z,19.87
2022-11-15T08:46:24.618Z,21.87
2022-11-15T08:49:45.349Z,20.60
2022-11-15T08:53:08.418Z,20.87
2022-11-15T08:56:28.959Z,17.60
2022-11-15T08:59:49.624Z,19.07
2022-11-15T09:03:10.672Z,19.17
2022-11-15T09:06:31.649Z,16.77
2022-11-15T09:09:52.342Z,17.63
2022-11-15T09:13:12.765Z,18.80
2022-11-15T09:16:33.282Z,18.43
2022-11-15T09:19:53.815Z,17.43
2022-11-15T09:23:14.176Z,18.37
2022-11-15T09:26:34.548Z,19.50
2022-11-15T09:29:55.139Z,19.30
2022-11-15T09:33:15.634Z,16.63
2022-11-15T09:36:36.457Z,16.10
2022-11-15T09:39:56.832Z,15.97
2022-11-15T09:43:26.028Z,17.50
2022-11-15T09:46:58.469Z,17.97
2022-11-15T09:50:11.119Z,16.90
2022-11-15T09:53:17.465Z,17.13
2022-11-15T09:56:23.259Z,16.77
2022-11-15T10:00:12.323Z,17.03
2022-11-15T10:03:34.821Z,17.73
2022-11-15T10:06:42.109Z,18.73
2022-11-15T10:10:05.802Z,17.97
2022-11-15T10:13:23.409Z,17.10
2022-11-15T10:16:49.990Z,17.60
2022-11-15T10:20:28.660Z,18.37
2022-11-15T10:23:33.083Z,18.07
2022-11-15T10:26:35.113Z,16.83
2022-11-15T10:29:37.302Z,16.67
2022-11-15T10:32:41.830Z,15.17
2022-11-15T10:35:43.981Z,18.60
2022-11-15T10:38:57.286Z,17.53
2022-11-15T10:42:31.402Z,17.33
2022-11-15T10:45:35.532Z,18.97
2022-11-15T10:48:37.555Z,17.63
2022-11-15T10:51:49.180Z,19.87
2022-11-15T10:55:28.825Z,18.57
2022-11-15T10:58:35.827Z,19.47
2022-11-15T11:01:48.084Z,19.73
2022-11-15T11:04:53.418Z,18.53
2022-11-15T11:08:01.093Z,19.87
2022-11-15T11:11:04.878Z,18.77
2022-11-15T11:14:18.317Z,18.70
2022-11-15T11:17:38.213Z,19.53
2022-11-15T11:20:46.814Z,19.67
2022-11-15T11:24:32.580Z,18.53
2022-11-15T11:28:00.687Z,20.80
2022-11-15T11:31:14.677Z,20.93
2022-11-15T11:34:58.483Z,21.33
2022-11-15T11:38:35.245Z,19.70
2022-11-15T11:42:15.971Z,20.33
2022-11-15T11:45:32.821Z,19.57
2022-11-15T11:49:04.064Z,20.37
2022-11-15T11:52:11.951Z,22.57
2022-11-15T11:55:14.512Z,21.27
2022-11-15T11:58:43.167Z,22.50
2022-11-15T12:01:46.314Z,20.70
2022-11-15T12:04:54.597Z,24.07
2022-11-15T12:08:07.979Z,21.47
2022-11-15T12:11:17.918Z,24.47
2022-11-15T12:14:28.890Z,22.50
2022-11-15T12:17:33.213Z,22.03
2022-11-15T12:20:40.866Z,20.97
2022-11-15T12:23:48.920Z,22.40
2022-11-15T12:26:57.622Z,21.97
2022-11-15T12:30:04.227Z,22.00
2022-11-15T12:33:06.320Z,21.77
2022-11-15T12:36:23.412Z,23.30
2022-11-15T12:40:13.637Z,20.77
2022-11-15T12:43:16.251Z,24.67
2022-11-15T12:46:24.525Z,21.07
2022-11-15T12:49:29.652Z,22.80
2022-11-15T12:52:31.685Z,25.00
2022-11-15T12:55:34.531Z,22.17
2022-11-15T12:58:57.682Z,24.70
2022-11-15T13:02:01.319Z,21.23
2022-11-15T13:05:21.586Z,23.43
2022-11-15T13:08:41.131Z,22.77
2022-11-15T13:11:48.850Z,20.83
2022-11-15T13:14:57.997Z,25.13
2022-11-15T13:18:01.100Z,24.37
2022-11-15T13:21:24.534Z,29.63
2022-11-15T13:24:26.659Z,24.20
2022-11-15T13:27:29.880Z,28.37
2022-11-15T13:30:32.571Z,24.83
2022-11-15T13:33:37.726Z,23.30
2022-11-15T13:36:39.847Z,24.17
2022-11-15T13:39:41.944Z,26.03
2022-11-15T13:42:45.867Z,22.93
2022-11-15T13:46:14.252Z,24.33
2022-11-15T13:49:16.296Z,23.03
2022-11-15T13:52:18.480Z,24.07
2022-11-15T13:55:23.749Z,24.67
2022-11-15T13:58:25.963Z,24.50
2022-11-15T14:01:32.115Z,22.17
2022-11-15T14:04:40.798Z,20.00
2022-11-15T14:07:57.837Z,21.23
2022-11-15T14:11:20.924Z,19.73
2022-11-15T14:14:25.378Z,23.10
2022-11-15T14:17:30.132Z,27.03
2022-11-15T14:20:38.184Z,24.90
2022-11-15T14:23:41.468Z,23.73
2022-11-15T14:26:43.581Z,25.50
2022-11-15T14:29:45.623Z,23.73
2022-11-15T14:32:50.366Z,23.33
2022-11-15T14:35:53.814Z,22.30
2022-11-15T14:38:56.281Z,21.67
2022-11-15T14:41:58.268Z,21.33
2022-11-15T14:45:00.288Z,23.50
2022-11-15T14:48:02.294Z,20.70
2022-11-15T14:51:04.671Z,26.10
2022-11-15T14:54:06.650Z,22.53
2022-11-15T14:57:08.703Z,24.23
2022-11-15T15:00:11.356Z,21.83
2022-11-15T15:03:16.089Z,21.90
2022-11-15T15:06:18.688Z,24.70
2022-11-15T15:09:20.730Z,26.50
2022-11-15T15:12:24.404Z,28.90
2022-11-15T15:15:32.740Z,25.73
2022-11-15T15:18:34.830Z,31.63
2022-11-15T15:21:37.724Z,28.13
2022-11-15T15:24:39.899Z,33.57
2022-11-15T15:27:41.877Z,36.03
2022-11-15T15:30:44.163Z,34.50
2022-11-15T15:33:46.356Z,36.77
2022-11-15T15:36:48.512Z,35.07
2022-11-15T15:39:52.691Z,33.40
2022-11-15T15:42:54.723Z,31.53
2022-11-15T15:45:56.848Z,33.70
2022-11-15T15:48:58.850Z,38.43
2022-11-15T15:52:00.915Z,35.37
2022-11-15T15:55:03.058Z,38.27
2022-11-15T15:58:06.304Z,32.90
2022-11-15T16:01:08.445Z,34.80
2022-11-15T16:04:10.675Z,32.40
2022-11-15T16:07:24.887Z,37.27
2022-11-15T16:10:33.002Z,39.07
2022-11-15T16:13:35.084Z,38.17
2022-11-15T16:16:38.005Z,37.23
2022-11-15T16:19:40.102Z,34.33
2022-11-15T16:22:42.295Z,38.23
2022-11-15T16:25:59.012Z,37.80
2022-11-15T16:29:01.091Z,37.50
2022-11-15T16:32:03.152Z,39.27
2022-11-15T16:35:05.850Z,35.53
2022-11-15T16:38:16.110Z,34.87
2022-11-15T16:41:19.469Z,37.13
2022-11-15T16:44:21.936Z,34.00
2022-11-15T16:47:25.219Z,33.47
2022-11-15T16:50:31.395Z,33.73
2022-11-15T16:53:33.621Z,32.30
2022-11-15T16:56:35.998Z,33.80
2022-11-15T16:59:38.639Z,30.47
2022-11-15T17:02:40.718Z,35.27
2022-11-15T17:05:42.957Z,29.77
2022-11-15T17:08:46.726Z,29.13
2022-11-15T17:11:48.965Z,29.43
2022-11-15T17:14:51.479Z,32.50
2022-11-15T17:17:55.103Z,30.20
2022-11-15T17:20:57.176Z,30.57
2022-11-15T17:24:00.266Z,29.83
2022-11-15T17:27:02.359Z,27.80
2022-11-15T17:30:06.315Z,24.70
2022-11-15T17:33:08.956Z,26.57
2022-11-15T17:36:12.968Z,26.37
2022-11-15T17:39:15.296Z,25.93
2022-11-15T17:42:17.578Z,23.07
2022-11-15T17:45:19.977Z,22.57
2022-11-15T17:48:22.371Z,28.00
2022-11-15T17:51:25.666Z,28.70
2022-11-15T17:54:31.753Z,29.17
2022-11-15T17:57:37.203Z,26.73
2022-11-15T18:00:39.464Z,31.67
2022-11-15T18:03:42.083Z,27.97
2022-11-15T18:06:44.543Z,25.27
2022-11-15T18:09:46.873Z,26.97
2022-11-15T18:12:49.095Z,26.23
2022-11-15T18:15:57.992Z,28.63
2022-11-15T18:19:01.453Z,26.93
2022-11-15T18:22:06.067Z,27.97
2022-11-15T18:25:09.298Z,27.37
2022-11-15T18:28:11.930Z,25.10
2022-11-15T18:31:23.062Z,27.50
2022-11-15T18:34:32.336Z,28.83
2022-11-15T18:37:35.568Z,25.77
2022-11-15T18:40:38.146Z,29.33
2022-11-15T18:43:41.334Z,27.47
2022-11-15T18:46:51.529Z,26.80
2022-11-15T18:49:53.891Z,24.17
2022-11-15T18:52:57.545Z,24.50
2022-11-15T18:56:05.362Z,25.43
2022-11-15T18:59:09.241Z,26.13
2022-11-15T19:02:13.322Z,25.07
2022-11-15T19:05:18.808Z,25.27
2022-11-15T19:08:21.118Z,25.37
2022-11-15T19:11:32.695Z,26.77
2022-11-15T19:14:35.185Z,22.73
2022-11-15T19:17:38.260Z,23.63
2022-11-15T19:20:41.137Z,22.83
2022-11-15T19:23:44.275Z,21.40
2022-11-15T19:26:47.319Z,21.60
2022-11-15T19:29:50.063Z,20.93
2022-11-15T19:32:53.087Z,21.63
2022-11-15T19:36:07.555Z,21.27
2022-11-15T19:39:13.277Z,18.37
2022-11-15T19:42:16.156Z,18.50
2022-11-15T19:45:19.739Z,19.17
2022-11-15T19:48:23.865Z,19.50
2022-11-15T19:51:29.290Z,24.87
2022-11-15T19:54:31.633Z,27.17
2022-11-15T19:57:36.004Z,23.07
2022-11-15T20:00:39.310Z,24.43
2022-11-15T20:03:41.760Z,27.70
2022-11-15T20:06:44.119Z,23.47
2022-11-15T20:09:46.837Z,23.07
2022-11-15T20:12:49.216Z,24.87
2022-11-15T20:15:53.374Z,22.27
2022-11-15T20:18:57.288Z,20.87
2022-11-15T20:21:59.603Z,24.60
2022-11-15T20:25:02.166Z,23.93
2022-11-15T20:28:08.145Z,25.00
2022-11-15T20:31:12.282Z,22.90
2022-11-15T20:34:14.689Z,23.30
2022-11-15T20:37:17.114Z,22.53
2022-11-15T20:40:19.900Z,22.03
2022-11-15T20:43:22.663Z,23.00
2022-11-15T20:46:25.343Z,18.70
2022-11-15T20:49:28.651Z,21.40
2022-11-15T20:52:30.900Z,22.70
2022-11-15T20:55:33.656Z,20.50
2022-11-15T20:58:37.371Z,19.83
2022-11-15T21:01:40.032Z,21.07
2022-11-15T21:04:42.886Z,18.83
2022-11-15T21:07:45.573Z,21.03
2022-11-15T21:11:10.185Z,19.80
2022-11-15T21:14:12.370Z,19.63
2022-11-15T21:17:15.151Z,18.50
2022-11-15T21:20:17.506Z,18.60
2022-11-15T21:23:19.604Z,20.70
2022-11-15T21:26:21.676Z,19.37
2022-11-15T21:29:24.474Z,17.77
2022-11-15T21:32:26.626Z,15.80
2022-11-15T21:35:29.195Z,18.90
2022-11-15T21:38:31.724Z,18.90
2022-11-15T21:41:34.532Z,17.43
2022-11-15T21:44:36.611Z,16.53
2022-11-15T21:47:42.056Z,16.43
2022-11-15T21:50:59.097Z,16.77
2022-11-15T21:54:01.443Z,15.77
2022-11-15T21:57:03.560Z,15.57
2022-11-15T22:00:24.260Z,14.80
2022-11-15T22:03:26.374Z,17.87
2022-11-15T22:06:28.590Z,14.77
2022-11-15T22:09:30.601Z,15.20
2022-11-15T22:12:32.805Z,16.73
2022-11-15T22:15:34.821Z,16.63
2022-11-15T22:18:37.924Z,13.53
2022-11-15T22:21:41.046Z,14.73
2022-11-15T22:24:43.167Z,13.87
2022-11-15T22:27:45.348Z,16.83
2022-11-15T22:30:48.590Z,18.87
2022-11-15T22:33:50.770Z,14.43
2022-11-15T22:37:19.283Z,15.40
2022-11-15T22:40:14.945Z,14.27
2022-11-15T22:43:19.513Z,14.33
2022-11-15T22:46:21.603Z,14.03
2022-11-15T22:49:23.717Z,16.13
2022-11-15T22:52:25.811Z,15.43
2022-11-15T22:55:27.887Z,13.60
2022-11-15T22:58:32.154Z,16.10
2022-11-15T23:01:34.639Z,15.90
2022-11-15T23:04:36.745Z,14.50
2022-11-15T23:07:38.823Z,13.20
2022-11-15T23:10:59.701Z,13.87
2022-11-15T23:14:01.789Z,13.63
2022-11-15T23:17:03.991Z,15.23
2022-11-15T23:20:29.161Z,13.50
2022-11-15T23:23:28.887Z,13.87
2022-11-15T23:26:31.792Z,12.23
2022-11-15T23:29:54.484Z,14.07
2022-11-15T23:33:14.961Z,13.83
2022-11-15T23:36:17.016Z,13.83
2022-11-15T23:39:19.544Z,18.13
2022-11-15T23:42:21.585Z,14.20
2022-11-15T23:45:23.640Z,16.00
2022-11-15T23:48:27.581Z,14.13
2022-11-15T23:51:29.787Z,14.70
2022-11-15T23:54:31.917Z,13.60
2022-11-15T23:57:34.003Z,13.83
